createdAt,value
2024-01-11T00:00:26.293Z,965.00
2024-01-11T00:01:26.420Z,997.00
2024-01-11T00:02:26.405Z,988.00
2024-01-11T00:03:26.367Z,994.00
2024-01-11T00:04:26.499Z,1007.00
2024-01-11T00:05:26.526Z,1020.00
2024-01-11T00:06:26.549Z,1026.00
2024-01-11T00:07:26.526Z,1028.00
2024-01-11T00:08:26.558Z,1023.00
2024-01-11T00:09:26.613Z,1011.00
2024-01-11T00:10:26.591Z,982.00
2024-01-11T00:11:26.664Z,912.00
2024-01-11T00:12:26.727Z,912.00
2024-01-11T00:13:26.705Z,925.00
2024-01-11T00:14:26.771Z,959.00
2024-01-11T00:15:26.753Z,974.00
2024-01-11T00:16:26.773Z,979.00
2024-01-11T00:17:26.879Z,988.00
2024-01-11T00:18:26.940Z,936.00
2024-01-11T00:19:26.910Z,913.00
2024-01-11T00:20:26.982Z,919.00
2024-01-11T00:21:26.981Z,943.00
2024-01-11T00:22:26.990Z,930.00
2024-01-11T00:23:27.168Z,912.00
2024-01-11T00:24:27.833Z,895.00
2024-01-11T00:25:27.033Z,879.00
2024-01-11T00:26:27.110Z,905.00
2024-01-11T00:27:27.117Z,853.00
2024-01-11T00:28:27.170Z,797.00
2024-01-11T00:29:27.269Z,774.00
2024-01-11T00:30:27.191Z,805.00
2024-01-11T00:31:27.169Z,842.00
2024-01-11T00:32:27.379Z,811.00
2024-01-11T00:33:27.393Z,808.00
2024-01-11T00:34:27.377Z,825.00
2024-01-11T00:35:27.430Z,846.00
2024-01-11T00:36:27.384Z,863.00
2024-01-11T00:37:27.377Z,795.00
2024-01-11T00:38:27.452Z,745.00
2024-01-11T00:39:27.448Z,744.00
2024-01-11T00:40:27.514Z,766.00
2024-01-11T00:41:27.550Z,802.00
2024-01-11T00:42:27.608Z,834.00
2024-01-11T00:43:27.577Z,859.00
2024-01-11T00:44:27.670Z,854.00
2024-01-11T00:45:27.653Z,858.00
2024-01-11T00:46:27.655Z,840.00
2024-01-11T00:47:27.770Z,808.00
2024-01-11T00:48:27.799Z,753.00
2024-01-11T00:49:27.794Z,759.00
2024-01-11T00:50:27.828Z,749.00
2024-01-11T00:51:27.774Z,760.00
2024-01-11T00:52:27.832Z,804.00
2024-01-11T00:53:27.906Z,837.00
2024-01-11T00:54:27.893Z,841.00
2024-01-11T00:55:27.903Z,778.00
2024-01-11T00:56:27.998Z,780.00
2024-01-11T00:57:27.978Z,809.00
2024-01-11T00:58:27.972Z,825.00
2024-01-11T00:59:28.058Z,834.00
2024-01-11T01:00:28.036Z,841.00
2024-01-11T01:01:28.154Z,846.00
2024-01-11T01:02:28.120Z,830.00
2024-01-11T01:03:28.186Z,829.00
2024-01-11T01:04:28.116Z,834.00
2024-01-11T01:05:28.260Z,840.00
2024-01-11T01:06:28.281Z,826.00
2024-01-11T01:07:28.210Z,823.00
2024-01-11T01:08:28.247Z,817.00
2024-01-11T01:09:28.244Z,807.00
2024-01-11T01:10:28.270Z,805.00
2024-01-11T01:11:28.333Z,769.00
2024-01-11T01:12:28.267Z,768.00
2024-01-11T01:13:28.304Z,780.00
2024-01-11T01:14:28.364Z,771.00
2024-01-11T01:15:28.300Z,770.00
2024-01-11T01:16:28.364Z,770.00
2024-01-11T01:17:28.482Z,775.00
2024-01-11T01:18:28.431Z,758.00
2024-01-11T01:19:28.517Z,763.00
2024-01-11T01:20:28.466Z,764.00
2024-01-11T01:21:28.430Z,774.00
2024-01-11T01:22:28.421Z,762.00
2024-01-11T01:23:28.449Z,757.00
2024-01-11T01:24:28.460Z,755.00
2024-01-11T01:25:28.480Z,733.00
2024-01-11T01:26:28.517Z,747.00
2024-01-11T01:27:28.486Z,737.00
2024-01-11T01:28:28.486Z,741.00
2024-01-11T01:29:28.595Z,738.00
2024-01-11T01:30:28.521Z,731.00
2024-01-11T01:31:28.574Z,711.00
2024-01-11T01:32:28.678Z,705.00
2024-01-11T01:33:28.818Z,688.00
2024-01-11T01:34:28.686Z,679.00
2024-01-11T01:35:28.648Z,688.00
2024-01-11T01:36:28.596Z,690.00
2024-01-11T01:37:28.614Z,687.00
2024-01-11T01:38:28.648Z,685.00
2024-01-11T01:39:28.648Z,682.00
2024-01-11T01:40:28.625Z,688.00
2024-01-11T01:41:28.690Z,665.00
2024-01-11T01:42:28.652Z,671.00
2024-01-11T01:43:28.661Z,666.00
2024-01-11T01:44:28.735Z,668.00
2024-01-11T01:45:28.704Z,675.00
2024-01-11T01:46:28.772Z,674.00
2024-01-11T01:47:28.808Z,666.00
2024-01-11T01:48:28.899Z,663.00
2024-01-11T01:49:28.825Z,662.00
2024-01-11T01:50:28.749Z,663.00
2024-01-11T01:51:28.825Z,659.00
2024-01-11T01:52:28.779Z,651.00
2024-01-11T01:53:28.792Z,653.00
2024-01-11T01:54:28.825Z,649.00
2024-01-11T01:55:28.739Z,652.00
2024-01-11T01:56:28.820Z,652.00
2024-01-11T01:57:28.831Z,648.00
2024-01-11T01:58:28.844Z,646.00
2024-01-11T01:59:28.859Z,652.00
2024-01-11T02:00:28.806Z,650.00
2024-01-11T02:01:28.908Z,647.00
2024-01-11T02:02:28.851Z,647.00
2024-01-11T02:03:28.881Z,646.00
2024-01-11T02:04:28.852Z,646.00
2024-01-11T02:05:28.988Z,641.00
2024-01-11T02:06:28.923Z,639.00
2024-01-11T02:07:28.857Z,634.00
2024-01-11T02:08:28.895Z,634.00
2024-01-11T02:09:28.847Z,626.00
2024-01-11T02:10:28.871Z,623.00
2024-01-11T02:11:28.909Z,627.00
2024-01-11T02:12:28.852Z,629.00
2024-01-11T02:13:28.873Z,629.00
2024-01-11T02:14:28.905Z,628.00
2024-01-11T02:15:28.886Z,628.00
2024-01-11T02:16:28.907Z,629.00
2024-01-11T02:17:29.015Z,624.00
2024-01-11T02:18:28.943Z,626.00
2024-01-11T02:19:29.003Z,626.00
2024-01-11T02:20:28.934Z,621.00
2024-01-11T02:21:28.900Z,628.00
2024-01-11T02:22:28.949Z,621.00
2024-01-11T02:23:29.013Z,619.00
2024-01-11T02:24:28.956Z,615.00
2024-01-11T02:25:28.954Z,618.00
2024-01-11T02:26:28.972Z,620.00
2024-01-11T02:27:28.968Z,618.00
2024-01-11T02:28:28.943Z,621.00
2024-01-11T02:29:29.051Z,612.00
2024-01-11T02:30:28.955Z,613.00
2024-01-11T02:31:28.973Z,611.00
2024-01-11T02:32:29.079Z,614.00
2024-01-11T02:33:29.155Z,612.00
2024-01-11T02:34:29.238Z,610.00
2024-01-11T02:35:29.062Z,614.00
2024-01-11T02:36:28.938Z,615.00
2024-01-11T02:37:28.976Z,612.00
2024-01-11T02:38:29.043Z,615.00
2024-01-11T02:39:29.048Z,611.00
2024-01-11T02:40:29.033Z,613.00
2024-01-11T02:41:29.113Z,611.00
2024-01-11T02:42:29.072Z,614.00
2024-01-11T02:43:29.060Z,611.00
2024-01-11T02:44:29.210Z,612.00
2024-01-11T02:45:29.117Z,611.00
2024-01-11T02:46:29.131Z,604.00
2024-01-11T02:47:29.222Z,602.00
2024-01-11T02:48:29.209Z,601.00
2024-01-11T02:49:29.264Z,603.00
2024-01-11T02:50:29.266Z,606.00
2024-01-11T02:51:29.247Z,610.00
2024-01-11T02:52:29.206Z,605.00
2024-01-11T02:53:29.244Z,602.00
2024-01-11T02:54:29.240Z,599.00
2024-01-11T02:55:29.262Z,601.00
2024-01-11T02:56:29.295Z,606.00
2024-01-11T02:57:29.310Z,606.00
2024-01-11T02:58:29.270Z,616.00
2024-01-11T02:59:29.311Z,610.00
2024-01-11T03:00:29.336Z,602.00
2024-01-11T03:01:29.292Z,602.00
2024-01-11T03:02:29.354Z,607.00
2024-01-11T03:03:29.402Z,607.00
2024-01-11T03:04:29.377Z,609.00
2024-01-11T03:05:29.437Z,610.00
2024-01-11T03:06:29.465Z,612.00
2024-01-11T03:07:29.480Z,609.00
2024-01-11T03:08:29.509Z,608.00
2024-01-11T03:09:29.546Z,605.00
2024-01-11T03:10:29.553Z,604.00
2024-01-11T03:11:29.612Z,602.00
2024-01-11T03:12:29.641Z,604.00
2024-01-11T03:13:29.621Z,604.00
2024-01-11T03:14:29.689Z,606.00
2024-01-11T03:15:29.681Z,601.00
2024-01-11T03:16:29.708Z,602.00
2024-01-11T03:17:29.808Z,600.00
2024-01-11T03:18:29.775Z,606.00
2024-01-11T03:19:29.826Z,607.00
2024-01-11T03:20:29.946Z,608.00
2024-01-11T03:21:29.843Z,605.00
2024-01-11T03:22:29.827Z,605.00
2024-01-11T03:23:29.920Z,608.00
2024-01-11T03:24:29.915Z,606.00
2024-01-11T03:25:29.961Z,608.00
2024-01-11T03:26:30.127Z,610.00
2024-01-11T03:27:29.982Z,605.00
2024-01-11T03:28:30.039Z,606.00
2024-01-11T03:29:30.058Z,607.00
2024-01-11T03:30:30.094Z,600.00
2024-01-11T03:31:30.111Z,599.00
2024-01-11T03:32:30.244Z,598.00
2024-01-11T03:33:30.259Z,600.00
2024-01-11T03:34:30.289Z,605.00
2024-01-11T03:35:30.210Z,613.00
2024-01-11T03:36:30.175Z,617.00
2024-01-11T03:37:30.184Z,620.00
2024-01-11T03:38:30.262Z,619.00
2024-01-11T03:39:30.903Z,618.00
2024-01-11T03:40:30.223Z,619.00
2024-01-11T03:41:30.311Z,608.00
2024-01-11T03:42:30.299Z,613.00
2024-01-11T03:43:30.260Z,611.00
2024-01-11T03:44:30.363Z,616.00
2024-01-11T03:45:30.286Z,612.00
2024-01-11T03:46:30.320Z,614.00
2024-01-11T03:47:30.413Z,615.00
2024-01-11T03:48:30.412Z,618.00
2024-01-11T03:49:30.478Z,615.00
2024-01-11T03:50:30.448Z,615.00
2024-01-11T03:51:30.403Z,615.00
2024-01-11T03:52:30.440Z,611.00
2024-01-11T03:53:30.442Z,602.00
2024-01-11T03:54:30.492Z,607.00
2024-01-11T03:55:30.419Z,617.00
2024-01-11T03:56:30.486Z,611.00
2024-01-11T03:57:30.477Z,615.00
2024-01-11T03:58:30.487Z,614.00
2024-01-11T03:59:30.530Z,612.00
2024-01-11T04:00:30.578Z,610.00
2024-01-11T04:01:30.534Z,612.00
2024-01-11T04:02:30.600Z,618.00
2024-01-11T04:03:30.655Z,614.00
2024-01-11T04:04:30.624Z,608.00
2024-01-11T04:05:30.672Z,611.00
2024-01-11T04:06:30.735Z,616.00
2024-01-11T04:07:30.654Z,612.00
2024-01-11T04:08:30.704Z,616.00
2024-01-11T04:09:30.715Z,609.00
2024-01-11T04:10:30.772Z,615.00
2024-01-11T04:11:30.817Z,606.00
2024-01-11T04:12:30.820Z,605.00
2024-01-11T04:13:30.896Z,608.00
2024-01-11T04:14:31.000Z,609.00
2024-01-11T04:15:30.958Z,602.00
2024-01-11T04:16:31.061Z,602.00
2024-01-11T04:17:31.145Z,603.00
2024-01-11T04:18:31.201Z,600.00
2024-01-11T04:19:31.382Z,613.00
2024-01-11T04:20:31.254Z,614.00
2024-01-11T04:21:31.220Z,604.00
2024-01-11T04:22:31.260Z,612.00
2024-01-11T04:23:31.422Z,609.00
2024-01-11T04:24:31.332Z,620.00
2024-01-11T04:25:31.446Z,617.00
2024-01-11T04:26:31.442Z,617.00
2024-01-11T04:27:38.679Z,600.00
2024-01-11T04:28:38.641Z,600.00
2024-01-11T04:29:38.675Z,600.00
2024-01-11T04:30:38.736Z,600.00
2024-01-11T04:31:46.026Z,600.00
2024-01-11T04:32:46.084Z,600.00
2024-01-11T04:33:45.968Z,600.00
2024-01-11T04:34:45.987Z,600.00
2024-01-11T04:35:45.976Z,600.00
2024-01-11T04:36:45.932Z,600.00
2024-01-11T04:37:45.973Z,605.00
2024-01-11T04:38:45.975Z,600.00
2024-01-11T04:39:45.980Z,601.00
2024-01-11T04:40:45.980Z,600.00
2024-01-11T04:41:46.020Z,607.00
2024-01-11T04:42:45.973Z,621.00
2024-01-11T04:43:46.075Z,619.00
2024-01-11T04:44:46.045Z,618.00
2024-01-11T04:45:46.046Z,614.00
2024-01-11T04:46:46.008Z,603.00
2024-01-11T04:47:46.222Z,605.00
2024-01-11T04:48:46.038Z,603.00
2024-01-11T04:49:46.003Z,613.00
2024-01-11T04:50:46.022Z,623.00
2024-01-11T04:51:45.984Z,618.00
2024-01-11T04:52:45.969Z,611.00
2024-01-11T04:53:46.069Z,600.00
2024-01-11T04:54:45.968Z,607.00
2024-01-11T04:55:45.978Z,610.00
2024-01-11T04:56:46.014Z,618.00
2024-01-11T04:57:46.039Z,614.00
2024-01-11T04:58:46.091Z,601.00
2024-01-11T04:59:46.221Z,602.00
2024-01-11T05:00:46.253Z,610.00
2024-01-11T05:01:46.275Z,608.00
2024-01-11T05:02:46.493Z,614.00
2024-01-11T05:03:46.422Z,613.00
2024-01-11T05:04:46.550Z,620.00
2024-01-11T05:05:46.694Z,622.00
2024-01-11T05:06:46.732Z,616.00
2024-01-11T05:07:46.722Z,610.00
2024-01-11T05:08:46.828Z,607.00
2024-01-11T05:09:46.893Z,608.00
2024-01-11T05:10:46.920Z,614.00
2024-01-11T05:11:47.008Z,606.00
2024-01-11T05:12:47.059Z,604.00
2024-01-11T05:13:47.119Z,609.00
2024-01-11T05:14:47.248Z,599.00
2024-01-11T05:15:47.278Z,603.00
2024-01-11T05:16:47.355Z,609.00
2024-01-11T05:17:47.490Z,603.00
2024-01-11T05:18:47.560Z,604.00
2024-01-11T05:19:47.523Z,615.00
2024-01-11T05:20:47.633Z,610.00
2024-01-11T05:21:47.659Z,614.00
2024-01-11T05:22:47.725Z,622.00
2024-01-11T05:23:47.764Z,627.00
2024-01-11T05:24:47.870Z,626.00
2024-01-11T05:25:47.907Z,625.00
2024-01-11T05:26:48.070Z,620.00
2024-01-11T05:27:48.069Z,619.00
2024-01-11T05:28:48.085Z,634.00
2024-01-11T05:29:48.240Z,639.00
2024-01-11T05:30:48.251Z,625.00
2024-01-11T05:31:48.546Z,607.00
2024-01-11T05:32:48.566Z,603.00
2024-01-11T05:33:49.311Z,604.00
2024-01-11T05:34:48.681Z,614.00
2024-01-11T05:35:48.562Z,625.00
2024-01-11T05:36:48.646Z,624.00
2024-01-11T05:37:48.727Z,623.00
2024-01-11T05:38:48.784Z,616.00
2024-01-11T05:39:48.824Z,617.00
2024-01-11T05:40:48.870Z,618.00
2024-01-11T05:41:49.013Z,629.00
2024-01-11T05:42:49.013Z,621.00
2024-01-11T05:43:49.084Z,611.00
2024-01-11T05:44:49.165Z,617.00
2024-01-11T05:45:49.269Z,626.00
2024-01-11T05:46:49.255Z,634.00
2024-01-11T05:47:49.403Z,628.00
2024-01-11T05:48:49.470Z,619.00
2024-01-11T05:49:49.412Z,624.00
2024-01-11T05:50:49.568Z,625.00
2024-01-11T05:51:49.517Z,629.00
2024-01-11T05:52:49.579Z,625.00
2024-01-11T05:53:49.570Z,630.00
2024-01-11T05:54:49.607Z,631.00
2024-01-11T05:55:50.936Z,626.00
2024-01-11T05:56:49.715Z,624.00
2024-01-11T05:57:49.728Z,620.00
2024-01-11T05:58:49.811Z,626.00
2024-01-11T05:59:49.862Z,633.00
2024-01-11T06:00:50.599Z,632.00
2024-01-11T06:02:15.642Z,612.00
2024-01-11T06:02:50.020Z,612.00
2024-01-11T06:03:50.068Z,614.00
2024-01-11T06:04:50.026Z,614.00
2024-01-11T06:05:50.032Z,613.00
2024-01-11T06:06:50.037Z,610.00
2024-01-11T06:07:50.059Z,617.00
2024-01-11T06:08:50.161Z,622.00
2024-01-11T06:09:50.034Z,633.00
2024-01-11T06:10:50.052Z,632.00
2024-01-11T06:11:50.042Z,625.00
2024-01-11T06:12:50.080Z,634.00
2024-01-11T06:13:49.994Z,637.00
2024-01-11T06:14:50.031Z,654.00
2024-01-11T06:15:50.120Z,686.00
2024-01-11T06:16:49.991Z,716.00
2024-01-11T06:17:50.198Z,711.00
2024-01-11T06:18:50.128Z,744.00
2024-01-11T06:19:50.026Z,801.00
2024-01-11T06:20:50.047Z,806.00
2024-01-11T06:21:50.052Z,823.00
2024-01-11T06:22:50.042Z,849.00
2024-01-11T06:23:50.094Z,868.00
2024-01-11T06:24:50.055Z,857.00
2024-01-11T06:25:50.023Z,854.00
2024-01-11T06:26:50.078Z,884.00
2024-01-11T06:27:50.083Z,893.00
2024-01-11T06:28:50.080Z,852.00
2024-01-11T06:29:50.189Z,825.00
2024-01-11T06:30:50.142Z,891.00
2024-01-11T06:31:50.106Z,952.00
2024-01-11T06:32:50.181Z,939.00
2024-01-11T06:33:51.655Z,877.00
2024-01-11T06:34:50.109Z,824.00
2024-01-11T06:35:51.150Z,791.00
2024-01-11T06:36:50.042Z,783.00
2024-01-11T06:37:50.040Z,814.00
2024-01-11T06:38:50.088Z,835.00
2024-01-11T06:39:50.049Z,870.00
2024-01-11T06:40:50.259Z,852.00
2024-01-11T06:41:50.174Z,767.00
2024-01-11T06:42:50.283Z,752.00
2024-01-11T06:43:50.395Z,703.00
2024-01-11T06:44:50.509Z,662.00
2024-01-11T06:45:50.506Z,658.00
2024-01-11T06:47:13.034Z,635.00
2024-01-11T06:47:50.901Z,635.00
2024-01-11T06:48:50.570Z,617.00
2024-01-11T06:49:50.677Z,616.00
2024-01-11T06:50:52.048Z,615.00
2024-01-11T06:51:50.368Z,626.00
2024-01-11T06:52:50.445Z,616.00
2024-01-11T06:53:50.386Z,609.00
2024-01-11T06:54:50.389Z,600.00
2024-01-11T06:55:50.403Z,603.00
2024-01-11T06:56:50.430Z,606.00
2024-01-11T06:57:50.517Z,609.00
2024-01-11T06:58:50.378Z,615.00
2024-01-11T06:59:50.508Z,628.00
2024-01-11T07:00:50.882Z,621.00
2024-01-11T07:01:50.350Z,628.00
2024-01-11T07:02:50.526Z,636.00
2024-01-11T07:03:50.422Z,646.00
2024-01-11T07:04:50.366Z,648.00
2024-01-11T07:05:50.802Z,642.00
2024-01-11T07:06:50.420Z,643.00
2024-01-11T07:07:50.534Z,649.00
2024-01-11T07:08:50.555Z,654.00
2024-01-11T07:09:50.558Z,649.00
2024-01-11T07:10:52.160Z,643.00
2024-01-11T07:11:50.810Z,639.00
2024-01-11T07:12:50.783Z,641.00
2024-01-11T07:13:50.897Z,641.00
2024-01-11T07:14:50.908Z,637.00
2024-01-11T07:15:51.184Z,636.00
2024-01-11T07:16:51.047Z,639.00
2024-01-11T07:17:51.531Z,640.00
2024-01-11T07:18:51.563Z,650.00
2024-01-11T07:19:51.140Z,642.00
2024-01-11T07:20:51.779Z,640.00
2024-01-11T07:21:51.266Z,637.00
2024-01-11T07:22:51.312Z,644.00
2024-01-11T07:23:51.428Z,651.00
2024-01-11T07:24:51.433Z,655.00
2024-01-11T07:25:51.861Z,651.00
2024-01-11T07:26:51.527Z,640.00
2024-01-11T07:27:51.677Z,647.00
2024-01-11T07:28:51.622Z,653.00
2024-01-11T07:29:51.776Z,659.00
2024-01-11T07:30:51.915Z,651.00
2024-01-11T07:31:51.842Z,648.00
2024-01-11T07:32:52.008Z,641.00
2024-01-11T07:33:52.580Z,634.00
2024-01-11T07:34:51.993Z,600.00
2024-01-11T07:35:52.409Z,637.00
2024-01-11T07:36:52.398Z,636.00
2024-01-11T07:37:52.137Z,631.00
2024-01-11T07:38:52.188Z,615.00
2024-01-11T07:39:52.158Z,602.00
2024-01-11T07:40:52.821Z,606.00
2024-01-11T07:41:52.438Z,610.00
2024-01-11T07:42:52.301Z,613.00
2024-01-11T07:43:54.682Z,620.00
2024-01-11T07:44:52.476Z,631.00
2024-01-11T07:45:52.341Z,651.00
2024-01-11T07:46:54.535Z,655.00
2024-01-11T07:47:53.265Z,655.00
2024-01-11T07:48:52.826Z,656.00
2024-01-11T07:49:52.841Z,657.00
2024-01-11T07:50:52.440Z,666.00
2024-01-11T07:51:52.310Z,688.00
2024-01-11T07:52:52.383Z,687.00
2024-01-11T07:53:52.785Z,676.00
2024-01-11T07:54:52.433Z,662.00
2024-01-11T07:55:52.466Z,651.00
2024-01-11T07:56:52.447Z,650.00
2024-01-11T07:57:52.355Z,645.00
2024-01-11T07:58:53.135Z,641.00
2024-01-11T07:59:53.082Z,632.00
2024-01-11T08:00:52.512Z,637.00
2024-01-11T08:01:52.436Z,635.00
2024-01-11T08:02:53.014Z,633.00
2024-01-11T08:03:53.302Z,631.00
2024-01-11T08:04:53.065Z,636.00
2024-01-11T08:05:52.508Z,641.00
2024-01-11T08:06:53.080Z,643.00
2024-01-11T08:07:52.384Z,644.00
2024-01-11T08:08:53.380Z,647.00
2024-01-11T08:10:18.650Z,649.00
2024-01-11T08:10:52.756Z,649.00
2024-01-11T08:11:53.662Z,651.00
2024-01-11T08:12:53.383Z,654.00
2024-01-11T08:13:52.593Z,658.00
2024-01-11T08:14:52.690Z,665.00
2024-01-11T08:15:52.983Z,680.00
2024-01-11T08:16:52.992Z,662.00
2024-01-11T08:17:52.792Z,659.00
2024-01-11T08:18:52.660Z,658.00
2024-01-11T08:19:53.581Z,645.00
2024-01-11T08:20:52.720Z,661.00
2024-01-11T08:21:53.083Z,668.00
2024-01-11T08:22:52.640Z,665.00
2024-01-11T08:23:52.711Z,663.00
2024-01-11T08:24:53.250Z,662.00
2024-01-11T08:25:52.748Z,670.00
2024-01-11T08:26:53.074Z,676.00
2024-01-11T08:27:53.560Z,692.00
2024-01-11T08:28:53.028Z,690.00
2024-01-11T08:29:52.671Z,698.00
2024-01-11T08:30:53.656Z,729.00
2024-01-11T08:31:53.599Z,725.00
2024-01-11T08:32:52.993Z,738.00
2024-01-11T08:33:56.442Z,805.00
2024-01-11T08:34:53.314Z,825.00
2024-01-11T08:35:53.270Z,818.00
2024-01-11T08:36:53.326Z,804.00
2024-01-11T08:37:53.653Z,791.00
2024-01-11T08:38:53.299Z,750.00
2024-01-11T08:39:53.795Z,789.00
2024-01-11T08:40:53.680Z,840.00
2024-01-11T08:41:52.827Z,903.00
2024-01-11T08:42:52.822Z,897.00
2024-01-11T08:43:52.817Z,869.00
2024-01-11T08:44:52.828Z,837.00
2024-01-11T08:45:52.945Z,817.00
2024-01-11T08:46:52.849Z,794.00
2024-01-11T08:47:52.900Z,772.00
2024-01-11T08:48:52.964Z,796.00
2024-01-11T08:49:52.793Z,779.00
2024-01-11T08:50:52.957Z,729.00
2024-01-11T08:51:52.822Z,692.00
2024-01-11T08:52:52.899Z,721.00
2024-01-11T08:53:52.893Z,744.00
2024-01-11T08:54:52.953Z,740.00
2024-01-11T08:55:52.905Z,746.00
2024-01-11T08:56:53.287Z,761.00
2024-01-11T08:57:53.219Z,746.00
2024-01-11T08:59:15.479Z,732.00
2024-01-11T08:59:52.868Z,732.00
2024-01-11T09:00:52.908Z,735.00
2024-01-11T09:01:57.823Z,729.00
2024-01-11T09:02:53.844Z,733.00
2024-01-11T09:03:52.916Z,739.00
2024-01-11T09:04:52.881Z,745.00
2024-01-11T09:05:53.652Z,747.00
2024-01-11T09:06:52.842Z,748.00
2024-01-11T09:07:54.423Z,722.00
2024-01-11T09:08:53.243Z,704.00
2024-01-11T09:09:56.777Z,709.00
2024-01-11T09:10:52.845Z,710.00
2024-01-11T09:11:52.811Z,714.00
2024-01-11T09:12:52.882Z,720.00
2024-01-11T09:13:52.821Z,742.00
2024-01-11T09:14:52.996Z,800.00
2024-01-11T09:15:52.887Z,811.00
2024-01-11T09:16:52.860Z,810.00
2024-01-11T09:17:53.064Z,799.00
2024-01-11T09:18:52.902Z,808.00
2024-01-11T09:19:52.934Z,793.00
2024-01-11T09:20:53.839Z,790.00
2024-01-11T09:21:53.244Z,784.00
2024-01-11T09:22:53.242Z,753.00
2024-01-11T09:23:53.181Z,734.00
2024-01-11T09:24:52.856Z,764.00
2024-01-11T09:25:52.847Z,827.00
2024-01-11T09:26:53.323Z,872.00
2024-01-11T09:27:52.878Z,885.00
2024-01-11T09:28:52.873Z,883.00
2024-01-11T09:29:55.628Z,843.00
2024-01-11T09:30:52.986Z,843.00
2024-01-11T09:31:53.289Z,803.00
2024-01-11T09:32:53.149Z,761.00
2024-01-11T09:33:53.044Z,692.00
2024-01-11T09:34:53.055Z,659.00
2024-01-11T09:35:52.999Z,660.00
2024-01-11T09:36:53.285Z,666.00
2024-01-11T09:37:53.667Z,664.00
2024-01-11T09:38:53.002Z,686.00
2024-01-11T09:39:53.014Z,711.00
2024-01-11T09:40:53.326Z,731.00
2024-01-11T09:41:52.926Z,753.00
2024-01-11T09:42:53.689Z,783.00
2024-01-11T09:43:52.929Z,815.00
2024-01-11T09:44:52.979Z,813.00
2024-01-11T09:45:52.888Z,748.00
2024-01-11T09:46:53.248Z,750.00
2024-01-11T09:47:52.934Z,725.00
2024-01-11T09:48:52.997Z,668.00
2024-01-11T09:49:52.978Z,639.00
2024-01-11T09:50:52.924Z,635.00
2024-01-11T09:51:53.279Z,645.00
2024-01-11T09:52:52.881Z,650.00
2024-01-11T09:53:54.830Z,640.00
2024-01-11T09:54:53.013Z,639.00
2024-01-11T09:55:52.895Z,631.00
2024-01-11T09:56:53.381Z,632.00
2024-01-11T09:57:52.953Z,633.00
2024-01-11T09:58:52.981Z,639.00
2024-01-11T09:59:53.779Z,660.00
2024-01-11T10:00:53.107Z,655.00
2024-01-11T10:01:53.306Z,643.00
2024-01-11T10:02:53.744Z,643.00
2024-01-11T10:03:53.339Z,634.00
2024-01-11T10:04:53.566Z,641.00
2024-01-11T10:05:53.273Z,663.00
2024-01-11T10:06:53.606Z,686.00
2024-01-11T10:07:53.223Z,691.00
2024-01-11T10:08:53.386Z,698.00
2024-01-11T10:09:54.151Z,714.00
2024-01-11T10:10:53.909Z,721.00
2024-01-11T10:11:53.619Z,724.00
2024-01-11T10:12:53.428Z,704.00
2024-01-11T10:13:54.147Z,693.00
2024-01-11T10:14:54.059Z,678.00
2024-01-11T10:15:53.841Z,664.00
2024-01-11T10:16:53.549Z,660.00
2024-01-11T10:17:54.507Z,661.00
2024-01-11T10:18:54.338Z,660.00
2024-01-11T10:19:54.232Z,654.00
2024-01-11T10:20:53.911Z,652.00
2024-01-11T10:21:54.953Z,650.00
2024-01-11T10:22:53.690Z,644.00
2024-01-11T10:23:53.709Z,641.00
2024-01-11T10:24:53.823Z,637.00
2024-01-11T10:25:54.007Z,636.00
2024-01-11T10:26:54.453Z,633.00
2024-01-11T10:27:55.404Z,631.00
2024-01-11T10:28:53.938Z,627.00
2024-01-11T10:29:54.399Z,628.00
2024-01-11T10:30:54.613Z,625.00
2024-01-11T10:31:56.760Z,621.00
2024-01-11T10:32:55.203Z,612.00
2024-01-11T10:33:54.257Z,618.00
2024-01-11T10:34:54.456Z,613.00
2024-01-11T10:35:54.296Z,613.00
2024-01-11T10:36:55.203Z,613.00
2024-01-11T10:37:54.279Z,612.00
2024-01-11T10:38:54.100Z,613.00
2024-01-11T10:39:54.119Z,613.00
2024-01-11T10:40:54.257Z,613.00
2024-01-11T10:41:54.569Z,614.00
2024-01-11T10:42:54.137Z,601.00
2024-01-11T10:43:54.253Z,600.00
2024-01-11T10:44:54.269Z,600.00
2024-01-11T10:45:54.268Z,600.00
2024-01-11T10:46:54.338Z,607.00
2024-01-11T10:47:54.808Z,619.00
2024-01-11T10:48:54.395Z,631.00
2024-01-11T10:49:54.588Z,631.00
2024-01-11T10:50:54.193Z,632.00
2024-01-11T10:51:54.587Z,628.00
2024-01-11T10:52:54.146Z,625.00
2024-01-11T10:53:54.536Z,630.00
2024-01-11T10:54:54.120Z,616.00
2024-01-11T10:55:54.424Z,609.00
2024-01-11T10:56:54.187Z,606.00
2024-01-11T10:57:55.665Z,604.00
2024-01-11T10:58:54.119Z,601.00
2024-01-11T10:59:54.201Z,606.00
2024-01-11T11:02:02.917Z,600.00
2024-01-11T11:03:02.616Z,600.00
2024-01-11T11:04:02.356Z,600.00
2024-01-11T11:05:02.491Z,600.00
2024-01-11T11:06:02.508Z,600.00
2024-01-11T11:07:02.491Z,607.00
2024-01-11T11:08:03.290Z,610.00
2024-01-11T11:09:03.118Z,613.00
2024-01-11T11:10:03.259Z,611.00
2024-01-11T11:11:02.779Z,604.00
2024-01-11T11:12:02.433Z,603.00
2024-01-11T11:13:02.757Z,607.00
2024-01-11T11:14:02.455Z,604.00
2024-01-11T11:15:02.386Z,603.00
2024-01-11T11:16:02.550Z,606.00
2024-01-11T11:17:02.725Z,601.00
2024-01-11T11:18:02.400Z,601.00
2024-01-11T11:19:02.430Z,603.00
2024-01-11T11:20:02.405Z,600.00
2024-01-11T11:21:02.314Z,601.00
2024-01-11T11:22:02.350Z,600.00
2024-01-11T11:23:03.334Z,600.00
2024-01-11T11:24:02.427Z,600.00
2024-01-11T11:25:02.364Z,602.00
2024-01-11T11:26:02.340Z,606.00
2024-01-11T11:27:13.612Z,611.00
2024-01-11T11:28:02.317Z,611.00
2024-01-11T11:29:03.299Z,612.00
2024-01-11T11:30:02.640Z,614.00
2024-01-11T11:31:02.339Z,618.00
2024-01-11T11:32:02.545Z,624.00
2024-01-11T11:33:02.425Z,627.00
2024-01-11T11:34:03.912Z,632.00
2024-01-11T11:35:02.340Z,629.00
2024-01-11T11:36:02.388Z,626.00
2024-01-11T11:37:02.739Z,607.00
2024-01-11T11:38:02.362Z,594.00
2024-01-11T11:39:02.404Z,602.00
2024-01-11T11:40:02.422Z,600.00
2024-01-11T11:41:02.764Z,619.00
2024-01-11T11:42:02.454Z,622.00
2024-01-11T11:43:03.273Z,636.00
2024-01-11T11:44:02.561Z,632.00
2024-01-11T11:45:04.136Z,621.00
2024-01-11T11:46:04.188Z,640.00
2024-01-11T11:47:03.110Z,660.00
2024-01-11T11:48:03.105Z,709.00
2024-01-11T11:49:02.988Z,726.00
2024-01-11T11:50:02.555Z,760.00
2024-01-11T11:51:02.612Z,781.00
2024-01-11T11:52:02.624Z,806.00
2024-01-11T11:53:02.658Z,820.00
2024-01-11T11:54:02.654Z,833.00
2024-01-11T11:55:02.754Z,839.00
2024-01-11T11:56:02.718Z,850.00
2024-01-11T11:57:03.128Z,852.00
2024-01-11T11:58:02.912Z,817.00
2024-01-11T11:59:02.835Z,854.00
2024-01-11T12:00:02.821Z,885.00
2024-01-11T12:01:02.817Z,912.00
2024-01-11T12:02:02.834Z,907.00
2024-01-11T12:03:03.032Z,921.00
2024-01-11T12:04:03.018Z,931.00
2024-01-11T12:05:03.195Z,932.00
2024-01-11T12:06:03.214Z,927.00
2024-01-11T12:07:03.373Z,932.00
2024-01-11T12:08:03.097Z,944.00
2024-01-11T12:09:03.042Z,941.00
2024-01-11T12:10:03.151Z,945.00
2024-01-11T12:11:03.149Z,943.00
2024-01-11T12:12:11.473Z,952.00
2024-01-11T12:13:04.197Z,952.00
2024-01-11T12:14:03.872Z,952.00
2024-01-11T12:15:03.284Z,951.00
2024-01-11T12:16:03.176Z,945.00
2024-01-11T12:17:03.185Z,929.00
2024-01-11T12:18:03.381Z,948.00
2024-01-11T12:19:03.676Z,952.00
2024-01-11T12:20:03.259Z,959.00
2024-01-11T12:21:03.187Z,957.00
2024-01-11T12:22:03.248Z,953.00
2024-01-11T12:23:03.285Z,925.00
2024-01-11T12:24:03.264Z,881.00
2024-01-11T12:25:03.245Z,829.00
2024-01-11T12:26:03.258Z,830.00
2024-01-11T12:27:03.326Z,824.00
2024-01-11T12:28:03.477Z,768.00
2024-01-11T12:29:03.357Z,725.00
2024-01-11T12:30:03.423Z,687.00